Disclaimer

Please do not use the information listed here in-flight or in-navigation, as they are not provided to us by the airports but are provided by volunteers, so they might be outdated.

Search


Regions


Airport information page

Radio informations:
Aerodrome flight information system (AFIS) - 118.7 MHz

Airport informations:
Latitude: 22° 03' 30.06" S
Longitude: 027° 49' 43.56" E
Elevation: 2925 feet - 892 meters
Operating hours: From sunrise to sunset (SR-SS)
Operating agency: Civil government, landing fees and diplomatic clearance may be required
Timezone: UTC+2
Fuel: N/A

Runway information:
12/30 - 5840 x 98 feet< - >1780 x 30 meters

Recent METARs:
FBSP 160300Z 15003KT CAVOK 20/14 Q1021
FBSP 160300Z 15003KT CAVOK 20/14 Q1021

Airport on the map: